createdAt,value
2019-03-12T00:00:07.311Z,1021.73
2019-03-12T00:01:07.294Z,1021.79
2019-03-12T00:02:07.285Z,1021.76
2019-03-12T00:03:07.243Z,1021.75
2019-03-12T00:04:07.226Z,1021.76
2019-03-12T00:05:07.199Z,1021.73
2019-03-12T00:06:07.176Z,1021.74
2019-03-12T00:07:07.158Z,1021.75
2019-03-12T00:08:07.135Z,1021.77
2019-03-12T00:09:07.113Z,1021.76
2019-03-12T00:10:07.086Z,1021.7
2019-03-12T00:11:07.074Z,1021.74
2019-03-12T00:12:07.042Z,1021.72
2019-03-12T00:13:07.023Z,1021.76
2019-03-12T00:14:06.995Z,1021.76
2019-03-12T00:15:06.980Z,1021.81
2019-03-12T00:16:06.952Z,1021.78
2019-03-12T00:17:06.933Z,1021.78
2019-03-12T00:18:06.913Z,1021.8
2019-03-12T00:19:06.886Z,1021.87
2019-03-12T00:20:06.863Z,1021.82
2019-03-12T00:21:06.843Z,1021.84
2019-03-12T00:22:06.822Z,1021.82
2019-03-12T00:23:06.794Z,1021.82
2019-03-12T00:24:06.772Z,1021.78
2019-03-12T00:25:06.749Z,1021.77
2019-03-12T00:26:06.731Z,1021.76
2019-03-12T00:27:06.704Z,1021.73
2019-03-12T00:28:06.694Z,1021.69
2019-03-12T00:29:06.657Z,1021.71
2019-03-12T00:30:06.642Z,1021.66
2019-03-12T00:31:06.619Z,1021.62
2019-03-12T00:32:06.596Z,1021.6
2019-03-12T00:33:06.592Z,1021.58
2019-03-12T00:34:06.547Z,1021.59
2019-03-12T00:35:06.529Z,1021.6
2019-03-12T00:36:06.512Z,1021.62
2019-03-12T00:37:06.481Z,1021.56
2019-03-12T00:38:06.456Z,1021.56
2019-03-12T00:39:06.437Z,1021.57
2019-03-12T00:40:06.418Z,1021.58
2019-03-12T00:41:06.396Z,1021.58
2019-03-12T00:42:06.369Z,1021.57
2019-03-12T00:43:06.348Z,1021.57
2019-03-12T00:44:06.321Z,1021.6
2019-03-12T00:45:06.303Z,1021.53
2019-03-12T00:46:06.279Z,1021.57
2019-03-12T00:47:06.255Z,1021.57
2019-03-12T00:48:06.233Z,1021.58
2019-03-12T00:49:06.215Z,1021.59
2019-03-12T00:50:06.191Z,1021.6
2019-03-12T00:51:06.165Z,1021.58
2019-03-12T00:52:06.143Z,1021.52
2019-03-12T00:53:06.126Z,1021.53
2019-03-12T00:54:06.101Z,1021.57
2019-03-12T00:55:06.075Z,1021.58
2019-03-12T00:56:06.052Z,1021.61
2019-03-12T00:57:06.030Z,1021.61
2019-03-12T00:58:06.011Z,1021.57
2019-03-12T00:59:05.985Z,1021.59
2019-03-12T01:00:05.970Z,1021.58
2019-03-12T01:01:06.014Z,1021.55
2019-03-12T01:02:05.922Z,1021.59
2019-03-12T01:03:05.899Z,1021.53
2019-03-12T01:04:05.876Z,1021.52
2019-03-12T01:05:05.849Z,1021.56
2019-03-12T01:06:05.826Z,1021.46
2019-03-12T01:07:05.810Z,1021.48
2019-03-12T01:08:05.785Z,1021.47
2019-03-12T01:09:05.758Z,1021.48
2019-03-12T01:10:05.737Z,1021.39
2019-03-12T01:11:05.718Z,1021.39
2019-03-12T01:12:05.694Z,1021.38
2019-03-12T01:13:05.672Z,1021.42
2019-03-12T01:14:05.647Z,1021.43
2019-03-12T01:15:05.629Z,1021.43
2019-03-12T01:16:05.600Z,1021.44
2019-03-12T01:17:05.583Z,1021.44
2019-03-12T01:18:05.556Z,1021.48
2019-03-12T01:19:05.534Z,1021.52
2019-03-12T01:20:05.512Z,1021.47
2019-03-12T01:21:05.493Z,1021.55
2019-03-12T01:22:05.472Z,1021.49
2019-03-12T01:23:05.443Z,1021.51
2019-03-12T01:24:05.420Z,1021.47
2019-03-12T01:25:05.402Z,1021.47
2019-03-12T01:26:05.382Z,1021.4
2019-03-12T01:27:05.352Z,1021.4
2019-03-12T01:28:05.330Z,1021.38
2019-03-12T01:29:05.307Z,1021.38
2019-03-12T01:30:05.289Z,1021.42
2019-03-12T01:31:05.266Z,1021.38
2019-03-12T01:32:05.250Z,1021.42
2019-03-12T01:33:05.218Z,1021.4
2019-03-12T01:34:05.199Z,1021.35
2019-03-12T01:35:05.176Z,1021.38
2019-03-12T01:36:05.155Z,1021.37
2019-03-12T01:37:05.130Z,1021.41
2019-03-12T01:38:05.106Z,1021.4
2019-03-12T01:39:05.085Z,1021.42
2019-03-12T01:40:05.063Z,1021.36
2019-03-12T01:41:05.037Z,1021.36
2019-03-12T01:42:05.014Z,1021.34
2019-03-12T01:43:04.997Z,1021.31
2019-03-12T01:44:04.973Z,1021.31
2019-03-12T01:45:04.949Z,1021.3
2019-03-12T01:46:04.923Z,1021.25
2019-03-12T01:47:04.906Z,1021.25
2019-03-12T01:48:04.879Z,1021.25
2019-03-12T01:49:04.859Z,1021.25
2019-03-12T01:50:04.833Z,1021.21
2019-03-12T01:51:04.811Z,1021.16
2019-03-12T01:52:04.788Z,1021.12
2019-03-12T01:53:04.769Z,1021.12
2019-03-12T01:54:04.747Z,1021.14
2019-03-12T01:55:04.720Z,1021.16
2019-03-12T01:56:04.697Z,1021.1
2019-03-12T01:57:04.679Z,1021.07
2019-03-12T01:58:04.656Z,1021.01
2019-03-12T01:59:04.632Z,1021.04
2019-03-12T02:00:04.607Z,1021.04
2019-03-12T02:01:04.630Z,1021.05
2019-03-12T02:02:04.566Z,1020.99
2019-03-12T02:03:04.537Z,1021.01
2019-03-12T02:04:04.521Z,1020.99
2019-03-12T02:05:04.494Z,1020.91
2019-03-12T02:06:04.475Z,1020.92
2019-03-12T02:07:04.454Z,1020.85
2019-03-12T02:08:04.430Z,1020.82
2019-03-12T02:09:04.433Z,1020.78
2019-03-12T02:10:04.380Z,1020.79
2019-03-12T02:11:04.365Z,1020.73
2019-03-12T02:12:04.339Z,1020.72
2019-03-12T02:13:04.313Z,1020.74
2019-03-12T02:14:04.291Z,1020.7
2019-03-12T02:15:04.271Z,1020.66
2019-03-12T02:16:04.252Z,1020.64
2019-03-12T02:17:04.227Z,1020.63
2019-03-12T02:18:04.199Z,1020.59
2019-03-12T02:19:04.180Z,1020.59
2019-03-12T02:20:04.154Z,1020.57
2019-03-12T02:21:04.137Z,1020.55
2019-03-12T02:22:04.110Z,1020.54
2019-03-12T02:23:04.087Z,1020.53
2019-03-12T02:24:04.066Z,1020.49
2019-03-12T02:25:04.046Z,1020.51
2019-03-12T02:26:04.024Z,1020.5
2019-03-12T02:27:03.998Z,1020.45
2019-03-12T02:28:03.974Z,1020.44
2019-03-12T02:29:03.955Z,1020.42
2019-03-12T02:30:03.954Z,1020.42
2019-03-12T02:31:03.909Z,1020.4
2019-03-12T02:32:03.889Z,1020.39
2019-03-12T02:33:03.861Z,1020.36
2019-03-12T02:34:03.844Z,1020.36
2019-03-12T02:35:03.819Z,1020.35
2019-03-12T02:36:03.798Z,1020.31
2019-03-12T02:37:03.770Z,1020.3
2019-03-12T02:38:03.763Z,1020.29
2019-03-12T02:39:03.732Z,1020.31
2019-03-12T02:40:03.718Z,1020.34
2019-03-12T02:41:03.680Z,1020.33
2019-03-12T02:42:03.662Z,1020.32
2019-03-12T02:43:03.638Z,1020.32
2019-03-12T02:44:03.665Z,1020.32
2019-03-12T02:45:03.589Z,1020.29
2019-03-12T02:46:03.568Z,1020.28
2019-03-12T02:47:03.553Z,1020.33
2019-03-12T02:48:03.526Z,1020.34
2019-03-12T02:49:03.503Z,1020.29
2019-03-12T02:50:03.478Z,1020.32
2019-03-12T02:51:03.457Z,1020.32
2019-03-12T02:52:03.430Z,1020.31
2019-03-12T02:53:03.412Z,1020.34
2019-03-12T02:54:03.397Z,1020.29
2019-03-12T02:55:03.366Z,1020.26
2019-03-12T02:56:03.343Z,1020.26
2019-03-12T02:57:03.321Z,1020.26
2019-03-12T02:58:03.303Z,1020.28
2019-03-12T02:59:03.271Z,1020.31
2019-03-12T03:00:03.255Z,1020.28
2019-03-12T03:01:03.231Z,1020.3
2019-03-12T03:02:03.207Z,1020.27
2019-03-12T03:03:03.192Z,1020.29
2019-03-12T03:04:03.182Z,1020.28
2019-03-12T03:05:03.136Z,1020.29
2019-03-12T03:06:03.122Z,1020.31
2019-03-12T03:07:03.092Z,1020.27
2019-03-12T03:08:03.072Z,1020.24
2019-03-12T03:09:03.044Z,1020.23
2019-03-12T03:10:03.027Z,1020.25
2019-03-12T03:11:03.009Z,1020.21
2019-03-12T03:12:02.990Z,1020.17
2019-03-12T03:13:02.957Z,1020.18
2019-03-12T03:14:02.932Z,1020.21
2019-03-12T03:15:02.925Z,1020.22
2019-03-12T03:16:02.895Z,1020.19
2019-03-12T03:17:02.887Z,1020.25
2019-03-12T03:18:02.841Z,1020.19
2019-03-12T03:19:02.828Z,1020.19
2019-03-12T03:20:02.798Z,1020.21
2019-03-12T03:21:02.778Z,1020.23
2019-03-12T03:22:02.751Z,1020.23
2019-03-12T03:23:02.733Z,1020.22
2019-03-12T03:24:02.719Z,1020.19
2019-03-12T03:25:02.689Z,1020.23
2019-03-12T03:26:02.661Z,1020.18
2019-03-12T03:27:02.636Z,1020.18
2019-03-12T03:28:02.631Z,1020.12
2019-03-12T03:29:02.602Z,1020.18
2019-03-12T03:30:02.573Z,1020.16
2019-03-12T03:31:02.553Z,1020.18
2019-03-12T03:32:02.549Z,1020.14
2019-03-12T03:33:02.505Z,1020.13
2019-03-12T03:34:02.484Z,1020.16
2019-03-12T03:35:02.458Z,1020.13
2019-03-12T03:36:02.441Z,1020.19
2019-03-12T03:37:02.414Z,1020.16
2019-03-12T03:38:02.386Z,1020.14
2019-03-12T03:39:02.368Z,1020.11
2019-03-12T03:40:02.341Z,1020.11
2019-03-12T03:41:02.325Z,1020.11
2019-03-12T03:42:02.302Z,1020.12
2019-03-12T03:43:02.276Z,1020.07
2019-03-12T03:44:02.252Z,1020.04
2019-03-12T03:45:02.238Z,1020.04
2019-03-12T03:46:02.209Z,1019.99
2019-03-12T03:47:02.185Z,1020.04
2019-03-12T03:48:02.164Z,1020
2019-03-12T03:49:02.139Z,1020
2019-03-12T03:50:02.133Z,1019.98
2019-03-12T03:51:02.131Z,1019.99
2019-03-12T03:52:02.069Z,1019.98
2019-03-12T03:53:02.046Z,1019.97
2019-03-12T03:54:02.046Z,1019.92
2019-03-12T03:55:01.999Z,1019.89
2019-03-12T03:56:01.982Z,1019.88
2019-03-12T03:57:01.956Z,1019.86
2019-03-12T03:58:01.989Z,1019.83
2019-03-12T03:59:01.915Z,1019.82
2019-03-12T04:00:01.940Z,1019.8
2019-03-12T04:01:01.865Z,1019.82
2019-03-12T04:02:01.842Z,1019.82
2019-03-12T04:03:01.829Z,1019.81
2019-03-12T04:04:01.802Z,1019.76
2019-03-12T04:05:01.773Z,1019.74
2019-03-12T04:06:01.764Z,1019.76
2019-03-12T04:07:01.755Z,1019.75
2019-03-12T04:08:01.714Z,1019.72
2019-03-12T04:09:01.698Z,1019.72
2019-03-12T04:10:01.660Z,1019.69
2019-03-12T04:11:01.648Z,1019.67
2019-03-12T04:12:01.614Z,1019.63
2019-03-12T04:13:01.602Z,1019.57
2019-03-12T04:14:01.569Z,1019.54
2019-03-12T04:15:01.549Z,1019.65
2019-03-12T04:16:01.644Z,1019.54
2019-03-12T04:17:01.508Z,1019.53
2019-03-12T04:18:01.480Z,1019.52
2019-03-12T04:19:01.454Z,1019.5
2019-03-12T04:20:01.434Z,1019.49
2019-03-12T04:21:01.415Z,1019.43
2019-03-12T04:22:01.392Z,1019.46
2019-03-12T04:23:01.363Z,1019.5
2019-03-12T04:24:01.341Z,1019.42
2019-03-12T04:25:01.392Z,1019.43
2019-03-12T04:26:01.305Z,1019.53
2019-03-12T04:27:01.272Z,1019.49
2019-03-12T04:28:01.253Z,1019.46
2019-03-12T04:29:01.226Z,1019.51
2019-03-12T04:30:01.207Z,1019.5
2019-03-12T04:31:01.186Z,1019.45
2019-03-12T04:32:01.162Z,1019.44
2019-03-12T04:33:01.134Z,1019.45
2019-03-12T04:34:01.112Z,1019.42
2019-03-12T04:35:01.096Z,1019.4
2019-03-12T04:36:01.071Z,1019.35
2019-03-12T04:37:01.044Z,1019.34
2019-03-12T04:38:01.021Z,1019.37
2019-03-12T04:39:01.002Z,1019.3
2019-03-12T04:40:00.979Z,1019.3
2019-03-12T04:41:00.956Z,1019.28
2019-03-12T04:42:00.930Z,1019.23
2019-03-12T04:43:00.911Z,1019.27
2019-03-12T04:44:00.883Z,1019.26
2019-03-12T04:45:00.865Z,1019.25
2019-03-12T04:46:00.838Z,1019.2
2019-03-12T04:47:00.816Z,1019.2
2019-03-12T04:48:00.792Z,1019.16
2019-03-12T04:49:00.774Z,1019.18
2019-03-12T04:50:00.752Z,1019.14
2019-03-12T04:51:00.723Z,1019.09
2019-03-12T04:52:00.701Z,1019.08
2019-03-12T04:53:00.690Z,1019.04
2019-03-12T04:54:00.744Z,1019
2019-03-12T04:55:00.632Z,1018.99
2019-03-12T04:56:00.610Z,1018.98
2019-03-12T04:57:00.588Z,1018.98
2019-03-12T04:58:00.569Z,1019.01
2019-03-12T04:59:00.544Z,1018.94
2019-03-12T05:00:00.539Z,1018.92
2019-03-12T05:01:00.496Z,1018.91
2019-03-12T05:02:00.477Z,1018.85
2019-03-12T05:03:00.454Z,1018.85
2019-03-12T05:04:00.432Z,1018.85
2019-03-12T05:05:00.405Z,1018.84
2019-03-12T05:06:00.382Z,1018.79
2019-03-12T05:07:00.363Z,1018.79
2019-03-12T05:08:00.340Z,1018.79
2019-03-12T05:09:00.314Z,1018.81
2019-03-12T05:10:00.376Z,1018.77
2019-03-12T05:11:00.269Z,1018.76
2019-03-12T05:12:00.245Z,1018.77
2019-03-12T05:13:00.223Z,1018.8
2019-03-12T05:14:00.203Z,1018.92
2019-03-12T05:15:00.280Z,1018.77
2019-03-12T05:16:00.189Z,1018.77
2019-03-12T05:17:00.129Z,1018.77
2019-03-12T05:18:00.112Z,1018.73
2019-03-12T05:19:00.090Z,1018.74
2019-03-12T05:20:00.067Z,1018.74
2019-03-12T05:21:00.039Z,1018.71
2019-03-12T05:22:00.025Z,1018.69
2019-03-12T05:22:59.998Z,1018.69
2019-03-12T05:23:59.974Z,1018.64
2019-03-12T05:24:59.948Z,1018.63
2019-03-12T05:25:59.931Z,1018.64
2019-03-12T05:26:59.906Z,1018.68
2019-03-12T05:27:59.883Z,1018.63
2019-03-12T05:28:59.861Z,1018.62
2019-03-12T05:29:59.833Z,1018.64
2019-03-12T05:30:59.835Z,1018.57
2019-03-12T05:31:59.789Z,1018.57
2019-03-12T05:32:59.770Z,1018.56
2019-03-12T05:33:59.744Z,1018.56
2019-03-12T05:34:59.720Z,1018.54
2019-03-12T05:35:59.696Z,1018.56
2019-03-12T05:36:59.679Z,1018.51
2019-03-12T05:37:59.656Z,1018.49
2019-03-12T05:38:59.628Z,1018.53
2019-03-12T05:39:59.606Z,1018.51
2019-03-12T05:40:59.587Z,1018.41
2019-03-12T05:41:59.565Z,1018.42
2019-03-12T05:42:59.537Z,1018.43
2019-03-12T05:43:59.514Z,1018.41
2019-03-12T05:44:59.492Z,1018.51
2019-03-12T05:45:59.472Z,1018.41
2019-03-12T05:46:59.471Z,1018.35
2019-03-12T05:47:59.427Z,1018.34
2019-03-12T05:48:59.401Z,1018.38
2019-03-12T05:49:59.382Z,1018.35
2019-03-12T05:50:59.359Z,1018.34
2019-03-12T05:51:59.337Z,1018.3
2019-03-12T05:52:59.309Z,1018.31
2019-03-12T05:53:59.294Z,1018.31
2019-03-12T05:54:59.268Z,1018.3
2019-03-12T05:55:59.247Z,1018.31
2019-03-12T05:56:59.218Z,1018.32
2019-03-12T05:57:59.195Z,1018.29
2019-03-12T05:58:59.176Z,1018.25
2019-03-12T05:59:59.154Z,1018.26
2019-03-12T06:00:59.130Z,1018.25
2019-03-12T06:01:59.104Z,1018.22
2019-03-12T06:02:59.085Z,1018.22
2019-03-12T06:03:59.057Z,1018.23
2019-03-12T06:04:59.038Z,1018.28
2019-03-12T06:05:59.060Z,1018.16
2019-03-12T06:06:59.107Z,1018.11
2019-03-12T06:07:58.967Z,1018.1
2019-03-12T06:08:58.951Z,1018.07
2019-03-12T06:09:58.925Z,1018.05
2019-03-12T06:10:58.898Z,1018.01
2019-03-12T06:11:58.876Z,1018.19
2019-03-12T06:12:58.858Z,1018.04
2019-03-12T06:13:58.834Z,1017.97
2019-03-12T06:14:58.806Z,1017.94
2019-03-12T06:15:58.782Z,1017.91
2019-03-12T06:16:58.761Z,1017.92
2019-03-12T06:17:58.743Z,1017.94
2019-03-12T06:18:58.749Z,1017.9
2019-03-12T06:19:58.695Z,1017.85
2019-03-12T06:20:58.670Z,1017.88
2019-03-12T06:21:58.651Z,1017.82
2019-03-12T06:22:58.630Z,1017.83
2019-03-12T06:23:58.605Z,1017.86
2019-03-12T06:24:58.578Z,1017.8
2019-03-12T06:25:58.555Z,1017.83
2019-03-12T06:26:58.536Z,1017.83
2019-03-12T06:27:58.513Z,1017.72
2019-03-12T06:28:58.486Z,1017.83
2019-03-12T06:29:58.464Z,1017.79
2019-03-12T06:30:58.445Z,1017.77
2019-03-12T06:31:58.422Z,1017.77
2019-03-12T06:32:58.398Z,1017.79
2019-03-12T06:33:58.372Z,1017.77
2019-03-12T06:34:58.353Z,1017.75
2019-03-12T06:35:58.327Z,1017.7
2019-03-12T06:36:58.307Z,1017.68
2019-03-12T06:37:58.281Z,1017.7
2019-03-12T06:38:58.257Z,1017.68
2019-03-12T06:39:58.237Z,1017.67
2019-03-12T06:40:58.216Z,1017.58
2019-03-12T06:41:58.193Z,1017.57
2019-03-12T06:42:58.175Z,1017.54
2019-03-12T06:43:58.143Z,1017.54
2019-03-12T06:44:58.124Z,1017.47
2019-03-12T06:45:58.102Z,1017.46
2019-03-12T06:46:58.075Z,1017.45
2019-03-12T06:47:58.054Z,1017.46
2019-03-12T06:48:58.028Z,1017.44
2019-03-12T06:49:58.014Z,1017.38
2019-03-12T06:50:57.984Z,1017.35
2019-03-12T06:51:57.988Z,1017.34
2019-03-12T06:52:57.938Z,1017.36
2019-03-12T06:53:57.915Z,1017.32
2019-03-12T06:54:57.892Z,1017.34
2019-03-12T06:55:57.870Z,1017.33
2019-03-12T06:56:57.862Z,1017.32
2019-03-12T06:57:57.828Z,1017.26
2019-03-12T06:58:57.800Z,1017.28
2019-03-12T06:59:57.785Z,1017.24
2019-03-12T07:00:57.759Z,1017.18
2019-03-12T07:01:57.736Z,1017.19
2019-03-12T07:02:57.710Z,1017.12
2019-03-12T07:03:57.686Z,1017.08
2019-03-12T07:04:57.664Z,1017.05
2019-03-12T07:05:57.645Z,1017.04
2019-03-12T07:07:00.791Z,1017.02
2019-03-12T07:07:57.600Z,1017.07
2019-03-12T07:08:57.577Z,1017.04
2019-03-12T07:09:57.554Z,1017.03
2019-03-12T07:10:57.532Z,1017.03
2019-03-12T07:11:57.514Z,1016.96
2019-03-12T07:12:57.487Z,1016.96
2019-03-12T07:13:57.458Z,1016.97
2019-03-12T07:14:57.447Z,1016.92
2019-03-12T07:15:57.419Z,1016.91
2019-03-12T07:16:57.395Z,1016.9
2019-03-12T07:17:57.366Z,1016.92
2019-03-12T07:18:57.349Z,1016.95
2019-03-12T07:19:57.328Z,1016.87
2019-03-12T07:20:57.303Z,1016.85
2019-03-12T07:21:57.280Z,1016.92
2019-03-12T07:22:57.259Z,1016.84
2019-03-12T07:23:57.242Z,1016.88
2019-03-12T07:24:57.212Z,1016.85
2019-03-12T07:25:57.185Z,1016.85
2019-03-12T07:26:57.162Z,1016.85
2019-03-12T07:27:57.139Z,1016.84
2019-03-12T07:28:57.120Z,1016.87
2019-03-12T07:29:57.101Z,1016.92
2019-03-12T07:30:57.074Z,1016.88
2019-03-12T07:31:57.048Z,1016.85
2019-03-12T07:32:57.045Z,1016.85
2019-03-12T07:33:57.007Z,1016.81
2019-03-12T07:34:56.979Z,1016.76
2019-03-12T07:35:56.956Z,1016.74
2019-03-12T07:36:56.933Z,1016.71
2019-03-12T07:37:56.917Z,1016.74
2019-03-12T07:38:56.914Z,1016.68
2019-03-12T07:39:56.872Z,1016.61
2019-03-12T07:40:56.843Z,1016.6
2019-03-12T07:41:56.825Z,1016.6
2019-03-12T07:42:56.800Z,1016.71
2019-03-12T07:43:56.795Z,1016.75
2019-03-12T07:44:56.753Z,1016.61
2019-03-12T07:45:56.728Z,1016.55
2019-03-12T07:46:56.710Z,1016.6
2019-03-12T07:47:56.688Z,1016.6
2019-03-12T07:48:56.661Z,1016.58
2019-03-12T07:49:56.711Z,1016.56
2019-03-12T07:50:56.618Z,1016.51
2019-03-12T07:51:56.596Z,1016.46
2019-03-12T07:52:56.573Z,1016.43
2019-03-12T07:53:59.616Z,1016.42
2019-03-12T07:54:56.527Z,1016.4
2019-03-12T07:55:56.500Z,1016.33
2019-03-12T07:56:56.493Z,1016.37
2019-03-12T07:57:56.454Z,1016.34
2019-03-12T07:58:56.432Z,1016.41
2019-03-12T07:59:56.421Z,1016.35
2019-03-12T08:00:56.390Z,1016.32
2019-03-12T08:01:56.370Z,1016.28
2019-03-12T08:02:56.341Z,1016.24
2019-03-12T08:03:58.915Z,1016.22
2019-03-12T08:04:56.306Z,1016.2
2019-03-12T08:05:56.277Z,1016.07
2019-03-12T08:06:56.288Z,1016.07
2019-03-12T08:07:56.267Z,1015.99
2019-03-12T08:08:56.258Z,1015.92
2019-03-12T08:09:56.327Z,1015.87
2019-03-12T08:10:56.288Z,1015.77
2019-03-12T08:11:56.188Z,1015.76
2019-03-12T08:12:56.195Z,1015.72
2019-03-12T08:13:56.195Z,1015.73
2019-03-12T08:14:56.229Z,1015.68
2019-03-12T08:15:56.048Z,1015.7
2019-03-12T08:16:56.020Z,1015.67
2019-03-12T08:17:56.007Z,1015.68
2019-03-12T08:18:55.979Z,1015.66
2019-03-12T08:19:55.957Z,1015.71
2019-03-12T08:20:55.931Z,1015.7
2019-03-12T08:21:55.925Z,1015.65
2019-03-12T08:22:55.898Z,1015.64
2019-03-12T08:23:56.014Z,1015.63
2019-03-12T08:24:55.846Z,1015.68
2019-03-12T08:25:55.893Z,1015.69
2019-03-12T08:26:55.913Z,1015.64
2019-03-12T08:27:55.774Z,1015.62
2019-03-12T08:28:55.791Z,1015.59
2019-03-12T08:29:55.770Z,1015.57
2019-03-12T08:30:55.710Z,1015.55
2019-03-12T08:31:55.729Z,1015.53
2019-03-12T08:32:55.660Z,1015.43
2019-03-12T08:33:55.640Z,1015.47
2019-03-12T08:34:55.611Z,1015.44
2019-03-12T08:35:55.588Z,1015.37
2019-03-12T08:36:55.568Z,1015.33
2019-03-12T08:37:55.545Z,1015.31
2019-03-12T08:38:55.520Z,1015.27
2019-03-12T08:39:55.639Z,1015.27
2019-03-12T08:40:55.474Z,1015.23
2019-03-12T08:41:55.457Z,1015.24
2019-03-12T08:42:55.428Z,1015.17
2019-03-12T08:43:55.411Z,1015.22
2019-03-12T08:44:55.386Z,1015.13
2019-03-12T08:45:55.365Z,1015.17
2019-03-12T08:46:55.343Z,1015.1
2019-03-12T08:47:55.325Z,1015.06
2019-03-12T08:48:55.430Z,1015.06
2019-03-12T08:49:55.313Z,1015.08
2019-03-12T08:50:55.251Z,1015.04
2019-03-12T08:51:55.228Z,1015.07
2019-03-12T08:52:55.203Z,1014.94
2019-03-12T08:53:55.179Z,1014.98
2019-03-12T08:54:55.169Z,1014.9
2019-03-12T08:55:55.142Z,1014.97
2019-03-12T08:56:55.119Z,1014.96
2019-03-12T08:57:55.089Z,1014.96
2019-03-12T08:58:55.070Z,1014.89
2019-03-12T08:59:55.042Z,1014.99
2019-03-12T09:00:55.023Z,1014.86
2019-03-12T09:01:55.145Z,1014.84
2019-03-12T09:02:54.974Z,1014.77
2019-03-12T09:03:54.956Z,1014.73
2019-03-12T09:04:54.933Z,1014.72
2019-03-12T09:05:54.913Z,1014.68
2019-03-12T09:06:54.887Z,1014.65
2019-03-12T09:07:54.861Z,1014.64
2019-03-12T09:08:54.842Z,1014.59
2019-03-12T09:09:54.819Z,1014.58
2019-03-12T09:10:54.792Z,1014.54
2019-03-12T09:11:54.769Z,1014.58
2019-03-12T09:12:54.746Z,1014.59
2019-03-12T09:13:54.728Z,1014.54
2019-03-12T09:14:54.703Z,1014.46
2019-03-12T09:15:54.682Z,1014.56
2019-03-12T09:16:54.656Z,1014.47
2019-03-12T09:17:54.637Z,1014.46
2019-03-12T09:18:54.615Z,1014.47
2019-03-12T09:19:54.618Z,1014.45
2019-03-12T09:20:54.567Z,1014.44
2019-03-12T09:21:54.543Z,1014.44
2019-03-12T09:22:54.524Z,1014.46
2019-03-12T09:23:54.502Z,1014.37
2019-03-12T09:24:54.474Z,1014.34
2019-03-12T09:25:54.469Z,1014.38
2019-03-12T09:26:54.547Z,1014.4
2019-03-12T09:27:54.411Z,1014.28
2019-03-12T09:28:54.432Z,1014.27
2019-03-12T09:29:54.369Z,1014.25
2019-03-12T09:30:54.349Z,1014.18
2019-03-12T09:31:54.315Z,1014.11
2019-03-12T09:32:54.297Z,1014.1
2019-03-12T09:33:54.280Z,1014.06
2019-03-12T09:34:54.248Z,1014.04
2019-03-12T09:35:54.253Z,1014
2019-03-12T09:36:54.268Z,1013.95
2019-03-12T09:37:54.249Z,1013.9
2019-03-12T09:38:54.157Z,1013.93
2019-03-12T09:39:54.134Z,1013.86
2019-03-12T09:40:54.115Z,1013.89
2019-03-12T09:41:54.093Z,1013.9
2019-03-12T09:42:54.066Z,1013.81
2019-03-12T09:43:54.092Z,1013.79
2019-03-12T09:44:54.037Z,1013.76
2019-03-12T09:45:54.003Z,1013.75
2019-03-12T09:46:53.974Z,1013.74
2019-03-12T09:47:53.973Z,1013.81
2019-03-12T09:48:53.930Z,1013.68
2019-03-12T09:49:53.912Z,1013.69
2019-03-12T09:50:53.892Z,1013.73
2019-03-12T09:51:53.865Z,1013.7
2019-03-12T09:52:53.853Z,1013.65
2019-03-12T09:53:53.822Z,1013.81
2019-03-12T09:54:53.798Z,1013.68
2019-03-12T09:55:53.776Z,1013.61
2019-03-12T09:56:53.748Z,1013.56
2019-03-12T09:57:53.736Z,1013.48
2019-03-12T09:58:53.714Z,1013.49
2019-03-12T09:59:53.686Z,1013.39
2019-03-12T10:00:53.665Z,1013.47
2019-03-12T10:01:53.639Z,1013.35
2019-03-12T10:02:53.617Z,1013.3
2019-03-12T10:03:53.591Z,1013.33
2019-03-12T10:04:53.573Z,1013.35
2019-03-12T10:05:53.545Z,1013.32
2019-03-12T10:06:53.521Z,1013.22
2019-03-12T10:07:53.552Z,1013.16
2019-03-12T10:08:53.482Z,1013.17
2019-03-12T10:09:53.458Z,1013.11
2019-03-12T10:10:53.472Z,1012.99
2019-03-12T10:11:53.408Z,1012.98
2019-03-12T10:12:53.394Z,1012.92
2019-03-12T10:13:53.385Z,1012.94
2019-03-12T10:14:53.342Z,1012.91
2019-03-12T10:15:53.408Z,1012.84
2019-03-12T10:16:53.308Z,1012.91
2019-03-12T10:17:53.274Z,1012.86
2019-03-12T10:18:53.256Z,1012.9
2019-03-12T10:19:53.228Z,1012.8
2019-03-12T10:20:53.215Z,1012.79
2019-03-12T10:21:53.184Z,1012.75
2019-03-12T10:22:53.163Z,1012.72
2019-03-12T10:23:53.138Z,1012.68
2019-03-12T10:24:53.120Z,1012.65
2019-03-12T10:25:53.098Z,1012.55
2019-03-12T10:26:53.069Z,1012.58
2019-03-12T10:27:53.047Z,1012.52
2019-03-12T10:28:53.041Z,1012.47
2019-03-12T10:29:53.016Z,1012.49
2019-03-12T10:30:52.997Z,1012.38
2019-03-12T10:31:52.955Z,1012.5
2019-03-12T10:32:52.934Z,1012.37
2019-03-12T10:33:52.916Z,1012.46
2019-03-12T10:34:52.889Z,1012.35
2019-03-12T10:35:52.909Z,1012.37
2019-03-12T10:36:52.843Z,1012.31
2019-03-12T10:37:52.829Z,1012.26
2019-03-12T10:38:52.802Z,1012.17
2019-03-12T10:39:52.784Z,1012.19
2019-03-12T10:40:52.754Z,1012.13
2019-03-12T10:41:52.730Z,1012.15
2019-03-12T10:42:52.729Z,1012.14
2019-03-12T10:43:55.374Z,1012.18
2019-03-12T10:44:52.663Z,1012.12
2019-03-12T10:45:52.638Z,1011.98
2019-03-12T10:46:52.641Z,1011.95
2019-03-12T10:47:52.598Z,1011.89
2019-03-12T10:48:52.575Z,1011.8
2019-03-12T10:49:52.549Z,1011.88
2019-03-12T10:50:52.540Z,1011.81
2019-03-12T10:51:52.635Z,1011.82
2019-03-12T10:52:52.486Z,1011.79
2019-03-12T10:53:52.457Z,1011.81
2019-03-12T10:54:52.435Z,1011.79
2019-03-12T10:55:52.414Z,1011.74
2019-03-12T10:56:52.406Z,1011.7
2019-03-12T10:57:52.372Z,1011.63
2019-03-12T10:58:52.346Z,1011.63
2019-03-12T10:59:52.372Z,1011.65
2019-03-12T11:00:52.345Z,1011.57
2019-03-12T11:01:52.282Z,1011.58
2019-03-12T11:02:52.259Z,1011.55
2019-03-12T11:03:52.234Z,1011.47
2019-03-12T11:04:52.212Z,1011.43
2019-03-12T11:05:52.195Z,1011.47
2019-03-12T11:06:52.166Z,1011.38
2019-03-12T11:07:52.165Z,1011.4
2019-03-12T11:08:52.120Z,1011.41
2019-03-12T11:09:52.115Z,1011.42
2019-03-12T11:10:52.085Z,1011.4
2019-03-12T11:11:52.057Z,1011.38
2019-03-12T11:12:52.100Z,1011.57
2019-03-12T11:13:52.009Z,1011.43
2019-03-12T11:14:51.991Z,1011.46
2019-03-12T11:15:51.967Z,1011.43
2019-03-12T11:16:51.940Z,1011.31
2019-03-12T11:17:51.917Z,1011.25
2019-03-12T11:18:51.899Z,1011.25
2019-03-12T11:19:51.878Z,1011.23
2019-03-12T11:20:51.855Z,1011.29
2019-03-12T11:21:51.827Z,1011.25
2019-03-12T11:22:51.809Z,1011.24
2019-03-12T11:23:51.783Z,1011.18
2019-03-12T11:24:51.765Z,1011.2
2019-03-12T11:25:51.737Z,1011.11
2019-03-12T11:26:51.714Z,1011.04
2019-03-12T11:27:51.693Z,1011.11
2019-03-12T11:28:51.676Z,1011.13
2019-03-12T11:29:51.654Z,1011.06
2019-03-12T11:30:51.626Z,1011.06
2019-03-12T11:31:51.604Z,1011.05
2019-03-12T11:32:51.584Z,1011.01
2019-03-12T11:33:51.564Z,1011.05
2019-03-12T11:34:51.536Z,1010.99
2019-03-12T11:35:51.514Z,1010.93
2019-03-12T11:36:51.536Z,1010.98
2019-03-12T11:37:51.597Z,1010.99
2019-03-12T11:38:51.446Z,1010.88
2019-03-12T11:39:51.440Z,1010.85
2019-03-12T11:40:51.402Z,1010.81
2019-03-12T11:41:51.382Z,1010.75
2019-03-12T11:42:51.383Z,1010.77
2019-03-12T11:43:51.338Z,1010.77
2019-03-12T11:44:51.312Z,1010.7
2019-03-12T11:45:51.365Z,1010.73
2019-03-12T11:46:51.391Z,1010.67
2019-03-12T11:47:51.264Z,1010.71
2019-03-12T11:48:51.448Z,1010.68
2019-03-12T11:49:51.322Z,1010.58
2019-03-12T11:50:51.182Z,1010.54
2019-03-12T11:51:51.225Z,1010.53
2019-03-12T11:52:55.406Z,1010.44
2019-03-12T11:53:51.314Z,1010.42
2019-03-12T11:54:51.140Z,1010.42
2019-03-12T11:55:51.065Z,1010.43
2019-03-12T11:56:51.070Z,1010.44
2019-03-12T11:57:51.123Z,1010.34
2019-03-12T11:58:50.999Z,1010.48
2019-03-12T11:59:50.976Z,1010.38
2019-03-12T12:00:51.083Z,1010.38
2019-03-12T12:01:50.936Z,1010.34
2019-03-12T12:02:59.593Z,1010.23
2019-03-12T12:03:51.027Z,1010.28
2019-03-12T12:04:50.872Z,1010.24
2019-03-12T12:05:50.865Z,1010.15
2019-03-12T12:06:50.821Z,1010.22